Hayden, CO (81639)

6:36 PM MDT on August 30, 2015 (GMT -0600)
Craig-Moffat | | Change Station
CLOSE
Current Station
Airport
Location: Craig,
Elevation: 6191 ft
Nearby Weather Stations

Elev 6191 ft 40.49 °N, 107.52 °W | Updated 21 minutes ago

Mostly Cloudy
Mostly Cloudy
68 °F
Feels Like 68 °F
N
24
Wind Variable Wind from West
Gusts 34 mph

Today
High -- | Low -- °F
--% Chance of Precip.
Yesterday
High -- | Low -- °F
Precip. -- in
6:34 AM 7:44 PM
Full, 98% visible
Pressure 30.15 in
Visibility 10.0 miles
Clouds Mostly Cloudy 10000 ft
Dew Point 50 °F
Humidity 52%
Rainfall 0.01 in
Snow Depth Not available.
UV 1 out of 12
Pollen 9.90 out of 12
Air Quality Not available.
Flu Activity Not available.
SPECI KCAG 310015Z AUTO 26021G30KT 10SM -TSRA BKN100 20/10 A3015 RMK AO2 PK WND 28036/2355 LTG DSNT ALQDS RAB15 TSB15 P0000 T02000100
Pressure 30.15 in
Visibility 10.0 miles
Clouds Mostly Cloudy 10000 ft
Dew Point 50 °F
Humidity 52%
Rainfall 0.01 in
Snow Depth Not available.
UV 1 out of 12
Pollen 9.90 out of 12
Air Quality Not available.
Flu Activity Not available.
SPECI KCAG 310015Z AUTO 26021G30KT 10SM -TSRA BKN100 20/10 A3015 RMK AO2 PK WND 28036/2355 LTG DSNT ALQDS RAB15 TSB15 P0000 T02000100

10-Day Weather Forecast

×

Almanac

Astronomy

Aug. 30, 2015 Rise Set
Actual Time
Civil Twilight
Nautical Twilight
Astronomical Twilight
Moon
Length of Visible Light
Length of Day
Tomorrow will be .
, % of the Moon is Illuminated

Today's Extremes

State Highs State Lows

Community

WunderPhotos

Upload Photos

1,851,111 photos uploaded!

WunderBlogs® & News

Nearby

Air Quality

  Air Quality AQ Index Pollutant
Not available.

Snow Depth

Station Depth Elevation

Earthquake Activity

City Distance Mag. Time & Date
Minimum magnitude displayed is 2.5.

Coastal Water Temperatures

Place Temperature

Stations

Nearby Weather Stations

Station Location Temp. Windchill Dew Point Humidity Wind Precip. Elev Updated Type